Denmark, South Carolina
Current Conditions -  °F | °C
As of 4:15 PM on Thursday 20 Nov 2014 (Local Time) from KBNL Reporting Station
Clear Clear  
Wind Chill: 63°   Ceiling: Unl
Heat Index: 63°   Visibility: NA
Dew Point: 37°   Wind: 10mph
Humidity: 39%   Direction: 250°WSW
Pressure: 30.15"   Gusts: 16mph
Location:  33.32°N, 81.14°W
Report Text: KBNL 202115Z AUTO 25009G14KT CLR 17/03 A3015 RMK AO2
Loading
Personal Weather Stations






























Interactive Weather Map New forecast layout! Learn more

10-Day Weather Forecast

Advertisements
Track Severe Weather on mobile